Time;durP1;ratioP1;P1;durP2;ratioP2;P2;SDS_P1;SDS_P2;PMS_P1;PMS_P2;Temp;Humidity;BMP_temperature;BMP_pressure;BME280_temperature;BME280_humidity;BME280_pressure;Samples;Min_cycle;Max_cycle;Signal;HPM_P1;HPM_P2
2021/06/20 00:01:04;;;;;;;;;;;;;;;19.37;83.14;100599.81;5114155;28;19915;-41
2021/06/20 00:03:29;;;;;;;;;;;;;;;19.34;81.73;100582.06;5113652;28;19908;-41
2021/06/20 00:05:56;;;;;;;;;;;;;;;19.36;81.08;100579.81;5114419;28;20348;-41
2021/06/20 00:08:21;;;;;;;;;;;;;;;19.42;79.60;100569.59;5113857;28;19995;-41
2021/06/20 00:10:49;;;;;;;;;;;;;;;19.50;79.51;100591.69;5114754;28;19939;-41
2021/06/20 00:13:15;;;;;;;;;;;;;;;19.55;79.16;100582.56;5114659;28;19932;-41
2021/06/20 00:15:40;;;;;;;;;;;;;;;19.62;79.74;100601.41;5114113;28;20002;-42
2021/06/20 00:18:06;;;;;;;;;;;;;;;19.66;78.90;100607.94;5113994;28;19946;-41
2021/06/20 00:20:33;;;;;;;;;;;;;;;19.67;79.41;100604.09;5114312;28;20351;-41
2021/06/20 00:22:58;;;;;;;;;;;;;;;19.68;78.54;100598.31;5113691;28;19915;-41
2021/06/20 00:25:24;;;;;;;;;;;;;;;19.61;79.98;100589.63;5116099;28;19908;-41
2021/06/20 00:27:50;;;;;;;;;;;;;;;19.62;79.50;100605.00;5117647;28;19907;-41
2021/06/20 00:30:18;;;;;;;;;;;;;;;19.63;79.82;100603.88;5117421;28;19931;-41
2021/06/20 00:32:44;;;;;;;;;;;;;;;19.59;79.82;100589.09;5117760;28;20352;-41
2021/06/20 00:35:09;;;;;;;;;;;;;;;19.57;78.79;100610.53;5117575;28;19915;-41
2021/06/20 00:37:34;;;;;;;;;;;;;;;19.59;78.77;100629.44;5117341;28;20233;-41
2021/06/20 00:40:00;;;;;;;;;;;;;;;19.59;80.58;100622.00;5117722;28;19907;-41
2021/06/20 00:42:25;;;;;;;;;;;;;;;19.56;78.71;100626.13;5117058;28;19990;-41
2021/06/20 00:44:50;;;;;;;;;;;;;;;19.57;78.81;100635.22;5117009;28;19965;-41
2021/06/20 00:47:16;;;;;;;;;;;;;;;19.58;78.78;100636.84;5116732;28;19907;-41
2021/06/20 00:49:42;;;;;;;;;;;;;;;19.58;79.04;100625.88;5117257;28;19912;-41
2021/06/20 00:52:07;;;;;;;;;;;;;;;19.46;80.21;100614.50;5117120;28;19959;-41
2021/06/20 00:54:33;;;;;;;;;;;;;;;19.46;79.30;100622.72;5116926;27;20343;-41
2021/06/20 00:56:59;;;;;;;;;;;;;;;19.49;79.28;100638.59;5116824;28;20343;-41
2021/06/20 00:59:24;;;;;;;;;;;;;;;19.52;78.56;100641.59;5116780;28;20355;-41
2021/06/20 01:01:49;;;;;;;;;;;;;;;19.55;78.54;100648.38;5117054;28;19907;-41
2021/06/20 01:04:14;;;;;;;;;;;;;;;19.58;78.50;100652.47;5116842;28;19907;-41
2021/06/20 01:06:40;;;;;;;;;;;;;;;19.60;78.75;100658.50;5116976;28;19908;-41
2021/06/20 01:09:06;;;;;;;;;;;;;;;19.59;78.17;100657.66;5116566;28;19939;-41
2021/06/20 01:11:32;;;;;;;;;;;;;;;19.58;77.76;100647.81;5116831;28;19950;-41
2021/06/20 01:13:58;;;;;;;;;;;;;;;19.59;78.30;100652.19;5116231;27;19908;-41
2021/06/20 01:16:25;;;;;;;;;;;;;;;19.57;78.10;100648.94;5117140;28;19915;-41
2021/06/20 01:18:50;;;;;;;;;;;;;;;19.57;77.88;100635.22;5116649;28;19962;-41
2021/06/20 01:21:16;;;;;;;;;;;;;;;19.58;78.00;100639.59;5117268;28;19951;-41
2021/06/20 01:23:41;;;;;;;;;;;;;;;19.59;77.89;100632.16;5116530;28;19998;-41
2021/06/20 01:26:07;;;;;;;;;;;;;;;19.60;77.73;100633.81;5116342;28;20404;-41
2021/06/20 01:28:41;;;;;;;;;;;;;;;19.59;77.91;100616.53;5116304;28;19908;-41
2021/06/20 01:31:10;;;;;;;;;;;;;;;19.58;77.92;100609.41;5116511;28;19966;-41
2021/06/20 01:33:35;;;;;;;;;;;;;;;19.58;77.73;100586.66;5116154;28;19908;-41
2021/06/20 01:36:01;;;;;;;;;;;;;;;19.55;78.60;100572.41;5115836;28;19911;-41
2021/06/20 01:38:26;;;;;;;;;;;;;;;19.53;78.36;100585.63;5116177;28;20006;-41
2021/06/20 01:40:51;;;;;;;;;;;;;;;19.52;77.98;100583.16;5116205;28;20006;-41
2021/06/20 01:43:17;;;;;;;;;;;;;;;19.50;77.58;100575.22;5116175;28;19908;-41
2021/06/20 01:45:42;;;;;;;;;;;;;;;19.49;78.02;100573.59;5116087;28;20255;-41
2021/06/20 01:48:07;;;;;;;;;;;;;;;19.48;78.15;100582.94;5115733;28;20408;-41
2021/06/20 01:50:33;;;;;;;;;;;;;;;19.48;77.50;100577.47;5116564;28;19908;-41
2021/06/20 01:53:00;;;;;;;;;;;;;;;19.48;77.48;100577.47;5115331;28;20351;-41
2021/06/20 01:55:25;;;;;;;;;;;;;;;19.48;78.89;100571.16;5115355;28;19908;-41
2021/06/20 01:57:50;;;;;;;;;;;;;;;19.46;78.17;100584.34;5115306;28;19918;-41
2021/06/20 02:00:16;;;;;;;;;;;;;;;19.44;77.96;100592.06;5116409;28;19907;-41
2021/06/20 02:02:42;;;;;;;;;;;;;;;19.43;77.68;100587.69;5115479;28;19911;-41
2021/06/20 02:05:07;;;;;;;;;;;;;;;19.39;79.97;100562.78;5116262;28;19950;-41
2021/06/20 02:07:35;;;;;;;;;;;;;;;19.32;79.52;100573.28;5115126;28;20419;-41
2021/06/20 02:10:00;;;;;;;;;;;;;;;19.26;78.56;100594.50;5115081;28;20352;-41
2021/06/20 02:12:26;;;;;;;;;;;;;;;19.28;78.54;100611.47;5115302;28;19952;-41
2021/06/20 02:14:54;;;;;;;;;;;;;;;19.30;78.75;100624.88;5116080;28;19908;-41
2021/06/20 02:17:25;;;;;;;;;;;;;;;19.28;78.28;100632.59;5115155;28;19915;-41
2021/06/20 02:19:52;;;;;;;;;;;;;;;19.27;79.14;100630.94;5115664;28;19908;-41
2021/06/20 02:22:17;;;;;;;;;;;;;;;19.26;78.35;100638.34;5115594;28;19908;-41
2021/06/20 02:24:43;;;;;;;;;;;;;;;19.27;79.55;100642.72;5115287;28;19908;-41
2021/06/20 02:27:10;;;;;;;;;;;;;;;19.24;78.46;100635.09;5114931;28;19953;-41
2021/06/20 02:29:36;;;;;;;;;;;;;;;19.22;79.41;100640.03;5115556;28;19953;-41
2021/06/20 02:32:01;;;;;;;;;;;;;;;19.21;78.94;100638.41;5114947;28;20300;-41
2021/06/20 02:34:26;;;;;;;;;;;;;;;19.21;79.87;100632.13;5115797;28;20223;-41
2021/06/20 02:36:52;;;;;;;;;;;;;;;19.19;78.94;100637.91;5115219;28;20237;-41
2021/06/20 02:39:17;;;;;;;;;;;;;;;19.20;79.51;100635.97;5115119;28;20272;-41
2021/06/20 02:41:45;;;;;;;;;;;;;;;19.18;79.48;100625.31;5115112;28;19907;-41
2021/06/20 02:44:10;;;;;;;;;;;;;;;19.17;81.04;100631.06;5114630;27;19907;-41
2021/06/20 02:46:35;;;;;;;;;;;;;;;19.14;80.91;100637.16;5114281;28;19912;-41
2021/06/20 02:49:00;;;;;;;;;;;;;;;19.07;80.66;100631.19;5114664;28;20010;-41
2021/06/20 02:51:26;;;;;;;;;;;;;;;18.95;81.28;100628.88;5114905;28;20353;-41
2021/06/20 02:53:51;;;;;;;;;;;;;;;18.87;80.39;100635.81;5114563;28;19912;-41
2021/06/20 02:56:16;;;;;;;;;;;;;;;18.84;80.83;100638.31;5114575;28;19907;-41
2021/06/20 02:58:41;;;;;;;;;;;;;;;18.76;80.30;100637.84;5114516;28;19915;-40
2021/06/20 03:01:06;;;;;;;;;;;;;;;18.72;80.04;100642.28;5115062;28;19907;-41
2021/06/20 03:03:32;;;;;;;;;;;;;;;18.70;81.05;100647.25;5114441;28;19915;-40
2021/06/20 03:05:57;;;;;;;;;;;;;;;18.66;80.39;100646.16;5115262;28;19911;-41
2021/06/20 03:08:22;;;;;;;;;;;;;;;18.62;80.02;100647.81;5114994;28;20339;-41
2021/06/20 03:10:47;;;;;;;;;;;;;;;18.60;79.96;100660.19;5114388;28;19960;-41
2021/06/20 03:13:13;;;;;;;;;;;;;;;18.55;80.82;100663.78;5113961;28;19908;-41
2021/06/20 03:15:38;;;;;;;;;;;;;;;18.52;80.04;100670.66;5115176;28;19915;-41
2021/06/20 03:18:04;;;;;;;;;;;;;;;18.49;80.01;100665.75;5114296;28;19914;-41
2021/06/20 03:20:29;;;;;;;;;;;;;;;18.50;79.86;100667.41;5114630;28;19908;-40
2021/06/20 03:22:54;;;;;;;;;;;;;;;18.50;80.07;100670.13;5114479;28;19994;-41
2021/06/20 03:25:20;;;;;;;;;;;;;;;18.51;80.41;100662.72;5114467;28;19909;-41
2021/06/20 03:27:45;;;;;;;;;;;;;;;18.43;81.25;100671.56;5113930;28;19915;-41
2021/06/20 03:30:10;;;;;;;;;;;;;;;18.41;81.06;100682.00;5114187;28;19912;-41
2021/06/20 03:32:36;;;;;;;;;;;;;;;18.41;80.40;100682.00;5114101;28;19908;-41
2021/06/20 03:35:01;;;;;;;;;;;;;;;18.37;80.76;100686.41;5114671;28;20323;-41
2021/06/20 03:37:26;;;;;;;;;;;;;;;18.32;80.74;100687.25;5114703;28;19984;-41
2021/06/20 03:39:52;;;;;;;;;;;;;;;18.32;81.66;100683.72;5114390;28;19961;-40
2021/06/20 03:42:17;;;;;;;;;;;;;;;18.33;80.36;100683.41;5113762;28;19907;-41
2021/06/20 03:44:42;;;;;;;;;;;;;;;18.36;80.55;100676.56;5114519;28;19952;-41
2021/06/20 03:47:08;;;;;;;;;;;;;;;18.37;80.10;100680.94;5114850;28;19968;-41
2021/06/20 03:49:33;;;;;;;;;;;;;;;18.33;81.34;100677.13;5114899;28;19908;-41
2021/06/20 03:51:59;;;;;;;;;;;;;;;18.31;80.76;100680.16;5113653;28;19915;-41
2021/06/20 03:54:24;;;;;;;;;;;;;;;18.34;80.48;100681.50;5114278;28;19908;-41
2021/06/20 03:56:50;;;;;;;;;;;;;;;18.37;79.94;100681.75;5114276;28;19916;-41
2021/06/20 03:59:15;;;;;;;;;;;;;;;18.39;80.25;100682.25;5115023;28;19968;-40
2021/06/20 04:01:40;;;;;;;;;;;;;;;18.40;80.35;100694.88;5117907;28;19919;-41
2021/06/20 04:04:06;;;;;;;;;;;;;;;18.37;80.66;100694.63;5117742;28;19915;-41
2021/06/20 04:06:31;;;;;;;;;;;;;;;18.36;80.32;100698.47;5118069;28;19912;-41
2021/06/20 04:08:56;;;;;;;;;;;;;;;18.34;80.52;100701.47;5118491;28;19908;-41
2021/06/20 04:11:21;;;;;;;;;;;;;;;18.30;82.63;100702.31;5117731;28;19944;-41
2021/06/20 04:13:47;;;;;;;;;;;;;;;18.26;83.55;100702.09;5117306;28;19907;-41
2021/06/20 04:16:12;;;;;;;;;;;;;;;18.19;83.99;100716.09;5117962;28;19908;-40
2021/06/20 04:18:37;;;;;;;;;;;;;;;18.18;82.66;100714.47;5117610;28;20330;-41
2021/06/20 04:21:02;;;;;;;;;;;;;;;18.19;83.93;100718.00;5117814;28;19907;-41
2021/06/20 04:23:27;;;;;;;;;;;;;;;18.20;83.54;100717.75;5117533;28;19907;-41
2021/06/20 04:25:53;;;;;;;;;;;;;;;18.20;83.77;100723.22;5117495;28;19907;-40
2021/06/20 04:28:19;;;;;;;;;;;;;;;18.21;83.15;100724.03;5117698;28;19915;-41
2021/06/20 04:30:45;;;;;;;;;;;;;;;18.21;84.03;100719.38;5117766;28;19969;-41
2021/06/20 04:33:10;;;;;;;;;;;;;;;18.23;83.36;100722.63;5117316;28;19907;-41
2021/06/20 04:35:35;;;;;;;;;;;;;;;18.22;83.66;100726.47;5117210;28;19908;-41
2021/06/20 04:38:00;;;;;;;;;;;;;;;18.24;84.10;100717.97;5120784;27;20365;-41
2021/06/20 04:40:26;;;;;;;;;;;;;;;18.25;83.74;100714.97;5116467;28;20010;-41
2021/06/20 04:42:56;;;;;;;;;;;;;;;18.27;83.68;100712.75;5117113;28;19915;-41
2021/06/20 04:45:21;;;;;;;;;;;;;;;18.28;83.86;100708.91;5117816;28;19919;-41
2021/06/20 04:47:47;;;;;;;;;;;;;;;18.33;83.74;100715.44;5116726;28;19914;-41
2021/06/20 04:50:12;;;;;;;;;;;;;;;18.33;83.99;100727.22;5117233;27;19907;-41
2021/06/20 04:52:41;;;;;;;;;;;;;;;18.29;84.90;100731.63;5117226;28;20343;-41
2021/06/20 04:55:07;;;;;;;;;;;;;;;18.27;84.23;100731.91;5116837;28;19914;-41
2021/06/20 04:57:32;;;;;;;;;;;;;;;18.25;84.52;100730.53;5116675;27;19908;-41
2021/06/20 05:00:00;;;;;;;;;;;;;;;18.28;83.90;100735.47;5117065;28;19908;-40
2021/06/20 05:02:25;;;;;;;;;;;;;;;18.30;84.21;100737.91;5116703;28;19907;-41
2021/06/20 05:04:51;;;;;;;;;;;;;;;18.27;84.86;100731.91;5116323;28;19911;-41
2021/06/20 05:07:16;;;;;;;;;;;;;;;18.30;84.91;100736.00;5116587;28;19954;-41
2021/06/20 05:09:42;;;;;;;;;;;;;;;18.26;85.98;100735.75;5115925;28;20266;-40
2021/06/20 05:12:07;;;;;;;;;;;;;;;18.29;84.75;100739.81;5116532;28;19915;-41
2021/06/20 05:14:33;;;;;;;;;;;;;;;18.32;84.68;100738.47;5116536;28;19907;-41
2021/06/20 05:16:58;;;;;;;;;;;;;;;18.36;85.27;100728.56;5116457;28;19907;-41
2021/06/20 05:19:24;;;;;;;;;;;;;;;18.38;84.70;100742.78;5117338;28;20007;-40
2021/06/20 05:21:49;;;;;;;;;;;;;;;18.43;84.74;100750.94;5116398;28;19908;-40
2021/06/20 05:24:15;;;;;;;;;;;;;;;18.42;84.66;100750.13;5117125;28;20331;-41
2021/06/20 05:26:40;;;;;;;;;;;;;;;18.41;85.02;100739.47;5116853;28;19911;-41
2021/06/20 05:29:05;;;;;;;;;;;;;;;18.40;84.88;100748.81;5116155;28;19908;-41
2021/06/20 05:31:30;;;;;;;;;;;;;;;18.43;84.31;100749.03;5116729;28;19917;-41
2021/06/20 05:33:56;;;;;;;;;;;;;;;18.45;85.23;100746.84;5116596;28;20014;-41
2021/06/20 05:36:21;;;;;;;;;;;;;;;18.49;84.74;100752.53;5116122;28;19912;-41
2021/06/20 05:38:46;;;;;;;;;;;;;;;18.50;84.03;100743.25;5115831;28;19937;-42
2021/06/20 05:41:12;;;;;;;;;;;;;;;18.53;84.20;100751.69;5115683;28;19907;-41
2021/06/20 05:43:37;;;;;;;;;;;;;;;18.57;83.58;100753.88;5115667;28;19908;-41
2021/06/20 05:46:02;;;;;;;;;;;;;;;18.55;84.18;100759.63;5116118;28;19914;-41
2021/06/20 05:48:27;;;;;;;;;;;;;;;18.56;83.47;100763.19;5115813;28;19907;-41
2021/06/20 05:50:53;;;;;;;;;;;;;;;18.56;83.45;100768.66;5115855;28;19914;-41
2021/06/20 05:53:18;;;;;;;;;;;;;;;18.54;83.27;100771.66;5115755;28;19908;-41
2021/06/20 05:55:43;;;;;;;;;;;;;;;18.51;83.41;100772.25;5115732;28;19907;-41
2021/06/20 05:58:09;;;;;;;;;;;;;;;18.51;82.52;100775.81;5115338;28;19914;-42
2021/06/20 06:00:34;;;;;;;;;;;;;;;18.53;82.96;100776.31;5115578;28;19915;-41
2021/06/20 06:02:59;;;;;;;;;;;;;;;18.58;82.96;100780.13;5115513;28;19907;-40
2021/06/20 06:05:25;;;;;;;;;;;;;;;18.62;82.57;100782.03;5116084;28;19908;-40
2021/06/20 06:07:50;;;;;;;;;;;;;;;18.68;82.50;100778.16;5115105;28;19965;-41
2021/06/20 06:10:16;;;;;;;;;;;;;;;18.71;82.77;100779.53;5115430;28;20002;-41
2021/06/20 06:12:41;;;;;;;;;;;;;;;18.72;82.54;100770.19;5115309;28;20002;-41
2021/06/20 06:15:07;;;;;;;;;;;;;;;18.71;82.38;100788.56;5115373;28;19914;-41
2021/06/20 06:17:32;;;;;;;;;;;;;;;18.68;82.83;100791.00;5114122;28;19915;-41
2021/06/20 06:19:58;;;;;;;;;;;;;;;18.62;82.89;100790.22;5116059;28;19977;-40
2021/06/20 06:22:23;;;;;;;;;;;;;;;18.63;82.79;100788.31;5114140;28;19908;-41
2021/06/20 06:24:49;;;;;;;;;;;;;;;18.62;82.20;100790.22;5114827;28;19908;-41
2021/06/20 06:27:15;;;;;;;;;;;;;;;18.63;82.50;100794.59;5115643;28;20033;-41
2021/06/20 06:29:40;;;;;;;;;;;;;;;18.69;82.60;100796.25;5115208;28;20355;-41
2021/06/20 06:32:06;;;;;;;;;;;;;;;18.87;82.53;100808.41;5115202;28;19907;-40
2021/06/20 06:34:32;;;;;;;;;;;;;;;19.04;81.78;100817.03;5115536;28;19912;-41
2021/06/20 06:36:57;;;;;;;;;;;;;;;19.18;82.00;100824.56;5114938;28;19934;-40
2021/06/20 06:39:22;;;;;;;;;;;;;;;19.29;81.31;100829.69;5114618;28;19912;-41
2021/06/20 06:41:48;;;;;;;;;;;;;;;19.37;80.92;100833.69;5115172;28;19965;-41
2021/06/20 06:44:13;;;;;;;;;;;;;;;19.43;81.08;100829.81;5114663;28;19918;-41
2021/06/20 06:46:38;;;;;;;;;;;;;;;19.46;80.56;100831.13;5115230;28;19908;-41
2021/06/20 06:49:03;;;;;;;;;;;;;;;19.53;80.28;100837.13;5114695;28;20365;-41
2021/06/20 06:51:29;;;;;;;;;;;;;;;19.59;78.81;100838.69;5115355;28;19914;-41
2021/06/20 06:53:54;;;;;;;;;;;;;;;19.57;78.43;100838.16;5114416;28;19929;-41
2021/06/20 06:56:19;;;;;;;;;;;;;;;19.49;77.82;100842.34;5114950;28;19915;-41
2021/06/20 06:58:44;;;;;;;;;;;;;;;19.44;77.99;100845.16;5114783;28;20006;-41
2021/06/20 07:01:09;;;;;;;;;;;;;;;19.44;78.01;100841.59;5115366;28;19915;-41
2021/06/20 07:03:35;;;;;;;;;;;;;;;19.49;77.98;100836.88;5114532;28;19930;-41
2021/06/20 07:06:00;;;;;;;;;;;;;;;19.56;77.41;100831.84;5115337;28;19938;-41
2021/06/20 07:08:25;;;;;;;;;;;;;;;19.67;76.87;100821.63;5115018;28;20351;-41
2021/06/20 07:10:50;;;;;;;;;;;;;;;19.76;75.05;100819.03;5114837;28;20347;-41
2021/06/20 07:13:16;;;;;;;;;;;;;;;19.82;76.16;100819.81;5114463;28;20422;-41
2021/06/20 07:15:41;;;;;;;;;;;;;;;19.92;76.48;100822.44;5115041;28;19951;-41
2021/06/20 07:18:06;;;;;;;;;;;;;;;20.07;75.44;100819.47;5114087;28;19912;-41
2021/06/20 07:20:31;;;;;;;;;;;;;;;20.20;75.23;100826.16;5114321;28;19912;-41
2021/06/20 07:22:57;;;;;;;;;;;;;;;20.28;74.37;100825.50;5114612;28;19907;-41
2021/06/20 07:25:22;;;;;;;;;;;;;;;20.30;72.80;100818.59;5114540;28;20238;-41
2021/06/20 07:27:48;;;;;;;;;;;;;;;20.35;72.06;100814.13;5113956;28;19914;-41
2021/06/20 07:30:15;;;;;;;;;;;;;;;20.39;73.00;100820.66;5114543;28;20251;-41
2021/06/20 07:32:41;;;;;;;;;;;;;;;20.38;72.03;100828.09;5114082;28;20313;-41
2021/06/20 07:35:06;;;;;;;;;;;;;;;20.39;72.45;100829.72;5118800;28;19907;-41
2021/06/20 07:37:32;;;;;;;;;;;;;;;20.39;71.74;100839.88;5118363;28;20248;-41
2021/06/20 07:39:57;;;;;;;;;;;;;;;20.33;72.26;100841.91;5118529;28;19918;-41
2021/06/20 07:42:22;;;;;;;;;;;;;;;20.27;72.14;100852.13;5118071;28;20256;-41
2021/06/20 07:44:48;;;;;;;;;;;;;;;20.16;71.96;100850.66;5119045;28;19908;-41
2021/06/20 07:47:13;;;;;;;;;;;;;;;20.11;72.58;100860.88;5118510;28;19907;-41
2021/06/20 07:49:38;;;;;;;;;;;;;;;20.11;71.93;100877.34;5118768;28;19914;-41
2021/06/20 07:52:03;;;;;;;;;;;;;;;20.05;71.49;100863.66;5118162;28;20335;-41
2021/06/20 07:54:29;;;;;;;;;;;;;;;20.03;71.11;100870.56;5118108;28;19961;-41
2021/06/20 07:56:54;;;;;;;;;;;;;;;20.07;70.43;100879.88;5118384;28;20003;-41
2021/06/20 07:59:19;;;;;;;;;;;;;;;20.08;71.02;100881.50;5118207;28;19911;-41
2021/06/20 08:01:44;;;;;;;;;;;;;;;20.12;71.20;100877.06;5117773;28;20436;-41
2021/06/20 08:04:10;;;;;;;;;;;;;;;20.16;71.21;100869.88;5117548;28;20395;-41
2021/06/20 08:06:35;;;;;;;;;;;;;;;20.23;71.53;100862.06;5118130;28;19907;-41
2021/06/20 08:09:00;;;;;;;;;;;;;;;20.32;70.93;100865.78;5118029;28;19911;-41
2021/06/20 08:11:26;;;;;;;;;;;;;;;20.31;69.85;100874.34;5118575;28;19908;-41
2021/06/20 08:13:52;;;;;;;;;;;;;;;20.31;70.25;100866.09;5117631;28;20351;-41
2021/06/20 08:16:20;;;;;;;;;;;;;;;20.41;71.03;100867.91;5117855;28;19908;-41
2021/06/20 08:18:45;;;;;;;;;;;;;;;20.62;70.93;100868.44;5118037;28;19907;-41
2021/06/20 08:21:11;;;;;;;;;;;;;;;20.87;70.22;100859.78;5118109;28;19912;-41
2021/06/20 08:23:36;;;;;;;;;;;;;;;21.03;68.12;100863.94;5117396;28;19908;-41
2021/06/20 08:26:01;;;;;;;;;;;;;;;21.10;68.48;100858.03;5117466;28;19933;-41
2021/06/20 08:28:27;;;;;;;;;;;;;;;21.19;68.25;100859.00;5117890;28;19957;-41
2021/06/20 08:30:52;;;;;;;;;;;;;;;21.25;68.36;100870.72;5118155;28;19947;-41
2021/06/20 08:33:18;;;;;;;;;;;;;;;21.24;68.08;100880.91;5118048;28;19907;-41
2021/06/20 08:35:43;;;;;;;;;;;;;;;21.22;66.98;100882.31;5117799;28;20006;-41
2021/06/20 08:38:08;;;;;;;;;;;;;;;21.18;67.84;100889.53;5116857;28;19914;-41
2021/06/20 08:40:34;;;;;;;;;;;;;;;21.18;67.96;100895.00;5116908;28;19912;-41
2021/06/20 08:42:59;;;;;;;;;;;;;;;21.16;68.26;100900.81;5116787;27;19914;-41
2021/06/20 08:45:24;;;;;;;;;;;;;;;21.29;68.16;100894.56;5116699;28;19908;-41
2021/06/20 08:47:50;;;;;;;;;;;;;;;21.41;66.50;100904.28;5117569;28;20332;-41
2021/06/20 08:50:17;;;;;;;;;;;;;;;21.54;67.58;100901.56;5117241;28;19907;-41
2021/06/20 08:52:42;;;;;;;;;;;;;;;21.84;67.07;100911.19;5117200;28;19951;-41
2021/06/20 08:55:09;;;;;;;;;;;;;;;22.11;66.52;100915.09;5116622;27;19935;-41
2021/06/20 08:57:36;;;;;;;;;;;;;;;22.17;64.91;100913.88;5117336;28;19975;-41
2021/06/20 09:00:04;;;;;;;;;;;;;;;22.30;65.04;100892.94;5117059;27;19918;-41
2021/06/20 09:02:29;;;;;;;;;;;;;;;22.38;64.54;100888.66;5117152;28;19914;-41
2021/06/20 09:04:59;;;;;;;;;;;;;;;22.35;65.30;100888.16;5116595;28;19912;-41
2021/06/20 09:07:35;;;;;;;;;;;;;;;22.32;64.98;100899.78;5116506;28;19998;-41
2021/06/20 09:10:07;;;;;;;;;;;;;;;22.36;64.39;100898.03;5116575;28;19907;-41
2021/06/20 09:12:39;;;;;;;;;;;;;;;22.54;65.19;100909.22;5116165;28;19938;-41
2021/06/20 09:15:05;;;;;;;;;;;;;;;22.50;64.77;100905.47;5116178;28;19922;-41
2021/06/20 09:17:30;;;;;;;;;;;;;;;22.45;64.12;100894.53;5116662;28;19911;-41
2021/06/20 09:19:59;;;;;;;;;;;;;;;22.35;63.16;100888.16;5116424;28;19908;-41
2021/06/20 09:22:25;;;;;;;;;;;;;;;22.33;64.08;100884.06;5116537;28;19929;-41
2021/06/20 09:25:00;;;;;;;;;;;;;;;22.34;63.10;100881.00;5116529;28;20009;-41
2021/06/20 09:27:25;;;;;;;;;;;;;;;22.32;63.68;100887.94;5115906;27;20287;-41
2021/06/20 09:29:50;;;;;;;;;;;;;;;22.28;63.21;100889.69;5116442;28;19969;-41
2021/06/20 09:32:16;;;;;;;;;;;;;;;22.22;63.18;100891.72;5115822;28;19908;-41
2021/06/20 09:34:43;;;;;;;;;;;;;;;22.32;62.18;100888.75;5116137;28;19945;-40
2021/06/20 09:37:08;;;;;;;;;;;;;;;22.29;63.76;100888.56;5115965;28;19942;-40
2021/06/20 09:39:33;;;;;;;;;;;;;;;22.30;63.31;100901.19;5116700;28;19923;-40
2021/06/20 09:42:03;;;;;;;;;;;;;;;22.41;62.93;100890.78;5114252;28;19908;-40
2021/06/20 09:44:38;;;;;;;;;;;;;;;22.72;63.27;100896.41;5116278;28;19915;-40
2021/06/20 09:47:04;;;;;;;;;;;;;;;23.03;60.84;100897.34;5115517;28;20055;-40
2021/06/20 09:49:30;;;;;;;;;;;;;;;23.22;60.16;100905.41;5115422;28;19908;-40
2021/06/20 09:51:55;;;;;;;;;;;;;;;23.34;60.18;100907.63;5116283;28;19923;-40
2021/06/20 09:54:30;;;;;;;;;;;;;;;23.44;59.67;100910.09;5116240;28;20381;-40
2021/06/20 09:56:56;;;;;;;;;;;;;;;23.26;59.49;100906.41;5115062;28;19969;-40
2021/06/20 09:59:32;;;;;;;;;;;;;;;23.14;59.47;100903.44;5115566;28;19907;-40
2021/06/20 10:02:10;;;;;;;;;;;;;;;23.00;59.06;100902.69;5116066;28;20251;-40
2021/06/20 10:04:37;;;;;;;;;;;;;;;23.10;57.62;100899.66;5115346;28;19907;-40
2021/06/20 10:07:03;;;;;;;;;;;;;;;23.36;59.08;100897.88;5116028;28;20232;-41
2021/06/20 10:09:28;;;;;;;;;;;;;;;23.68;57.20;100911.72;5115352;28;20343;-41
2021/06/20 10:11:53;;;;;;;;;;;;;;;23.95;56.25;100899.66;5115881;28;20006;-40
2021/06/20 10:14:18;;;;;;;;;;;;;;;24.17;54.46;100907.03;5115476;28;19907;-41
2021/06/20 10:16:49;;;;;;;;;;;;;;;24.36;55.11;100899.31;5116042;28;20251;-40
2021/06/20 10:19:16;;;;;;;;;;;;;;;24.43;53.11;100896.88;5114995;28;19908;-40
2021/06/20 10:21:43;;;;;;;;;;;;;;;24.43;53.42;100901.59;5115144;28;19931;-40
2021/06/20 10:24:10;;;;;;;;;;;;;;;24.38;54.07;100908.09;5115296;28;19953;-40
2021/06/20 10:26:36;;;;;;;;;;;;;;;24.27;55.09;100907.56;5115823;28;20409;-40
2021/06/20 10:29:14;;;;;;;;;;;;;;;24.19;52.83;100902.81;5114954;28;19964;-40
2021/06/20 10:31:39;;;;;;;;;;;;;;;24.20;54.16;100903.63;5114891;28;19908;-40
2021/06/20 10:34:19;;;;;;;;;;;;;;;24.31;52.61;100903.00;5114872;28;19914;-40
2021/06/20 10:36:46;;;;;;;;;;;;;;;24.40;52.11;100909.41;5114861;28;19908;-40
2021/06/20 10:39:12;;;;;;;;;;;;;;;24.37;52.97;100903.69;5115285;28;20296;-41
2021/06/20 10:41:38;;;;;;;;;;;;;;;24.60;53.96;100898.88;5115753;28;19990;-41
2021/06/20 10:44:03;;;;;;;;;;;;;;;24.77;52.55;100892.50;5114293;28;19946;-41
2021/06/20 10:46:29;;;;;;;;;;;;;;;24.57;51.91;100903.06;5115008;28;19908;-41
2021/06/20 10:48:54;;;;;;;;;;;;;;;24.37;53.90;100910.03;5114587;28;20285;-40
2021/06/20 10:51:20;;;;;;;;;;;;;;;24.18;52.56;100909.47;5114921;28;19994;-41
2021/06/20 10:53:46;;;;;;;;;;;;;;;24.06;53.05;100910.09;5114527;28;19907;-40
2021/06/20 10:56:22;;;;;;;;;;;;;;;24.05;54.08;100904.88;5114793;28;19969;-40
2021/06/20 10:58:48;;;;;;;;;;;;;;;24.07;54.17;100902.63;5114237;28;19961;-40
2021/06/20 11:01:17;;;;;;;;;;;;;;;24.02;52.73;100889.78;5114219;28;19915;-40
2021/06/20 11:03:46;;;;;;;;;;;;;;;23.92;54.41;100890.06;5114427;28;19907;-40
2021/06/20 11:06:13;;;;;;;;;;;;;;;23.83;54.87;100890.03;5114984;28;19958;-40
2021/06/20 11:08:54;;;;;;;;;;;;;;;23.79;55.78;100891.78;5114532;28;20242;-40
2021/06/20 11:11:22;;;;;;;;;;;;;;;23.72;54.84;100888.69;5114939;28;19914;-40
2021/06/20 11:13:48;;;;;;;;;;;;;;;23.67;55.14;100880.56;5114823;28;19915;-40
2021/06/20 11:16:23;;;;;;;;;;;;;;;23.55;54.74;100880.28;5114335;28;19998;-40
2021/06/20 11:18:48;;;;;;;;;;;;;;;23.51;55.03;100882.06;5115140;28;19907;-40
2021/06/20 11:21:14;;;;;;;;;;;;;;;23.52;55.29;100886.44;5114593;28;19986;-40
2021/06/20 11:23:40;;;;;;;;;;;;;;;23.53;56.18;100888.09;5114236;28;20267;-40
2021/06/20 11:26:06;;;;;;;;;;;;;;;23.61;55.69;100879.81;5114682;28;19954;-40
2021/06/20 11:28:31;;;;;;;;;;;;;;;23.75;56.10;100874.22;5114077;28;19907;-40
2021/06/20 11:31:06;;;;;;;;;;;;;;;23.93;55.87;100863.25;5113884;28;19915;-40
2021/06/20 11:33:31;;;;;;;;;;;;;;;24.09;54.79;100865.25;5114625;28;19908;-40
2021/06/20 11:35:57;;;;;;;;;;;;;;;24.25;53.77;100864.78;5113801;28;20283;-40
2021/06/20 11:38:28;;;;;;;;;;;;;;;24.57;53.91;100860.78;5113785;28;19908;-40
2021/06/20 11:40:53;;;;;;;;;;;;;;;24.87;52.89;100861.75;5114554;28;20002;-40
2021/06/20 11:43:18;;;;;;;;;;;;;;;25.00;52.23;100851.66;5113712;28;19908;-40
2021/06/20 11:45:44;;;;;;;;;;;;;;;25.17;52.93;100854.41;5114531;28;19908;-40
2021/06/20 11:48:09;;;;;;;;;;;;;;;25.47;51.37;100854.50;5113976;28;19935;-40
2021/06/20 11:50:36;;;;;;;;;;;;;;;25.71;50.96;100854.72;5114233;28;19947;-40
2021/06/20 11:53:08;;;;;;;;;;;;;;;25.89;49.45;100844.41;5114123;28;19912;-40
2021/06/20 11:55:35;;;;;;;;;;;;;;;26.01;50.21;100851.97;5114259;28;19908;-40
2021/06/20 11:58:04;;;;;;;;;;;;;;;26.20;48.09;100844.03;5113955;28;19912;-40
2021/06/20 12:00:31;;;;;;;;;;;;;;;26.22;48.45;100844.53;5113926;28;19911;-40
2021/06/20 12:02:59;;;;;;;;;;;;;;;26.30;47.84;100832.56;5114074;28;19914;-40
2021/06/20 12:05:24;;;;;;;;;;;;;;;26.44;46.49;100830.34;5114381;28;19907;-40
2021/06/20 12:07:52;;;;;;;;;;;;;;;26.52;49.38;100834.22;5113874;28;19914;-40
2021/06/20 12:10:18;;;;;;;;;;;;;;;26.73;47.51;100831.41;5113827;28;20365;-40
2021/06/20 12:12:44;;;;;;;;;;;;;;;26.91;45.27;100841.19;5113471;28;19998;-40
2021/06/20 12:15:10;;;;;;;;;;;;;;;27.11;46.18;100833.19;5114081;28;19915;-40
2021/06/20 12:17:37;;;;;;;;;;;;;;;27.33;45.41;100831.97;5113783;28;19953;-40
2021/06/20 12:20:03;;;;;;;;;;;;;;;27.43;45.26;100824.03;5114811;28;19952;-41
2021/06/20 12:22:28;;;;;;;;;;;;;;;27.52;43.77;100831.41;5117523;28;20235;-40
2021/06/20 12:25:01;;;;;;;;;;;;;;;27.54;43.63;100834.66;5117966;28;19908;-40
2021/06/20 12:27:28;;;;;;;;;;;;;;;27.56;45.00;100843.44;5117890;28;19907;-40
2021/06/20 12:29:53;;;;;;;;;;;;;;;27.56;41.33;100840.69;5117131;28;19908;-40